Time;durP1;ratioP1;P1;durP2;ratioP2;P2;SDS_P1;SDS_P2;PMS_P1;PMS_P2;Temp;Humidity;BMP_temperature;BMP_pressure;BME280_temperature;BME280_humidity;BME280_pressure;Samples;Min_cycle;Max_cycle;Signal;HPM_P1;HPM_P2
2023/08/25 00:02:04;;;;;;;28.10;25.80;;;;;;;18.72;100.00;95366.59;5064997;28;20024;-92
2023/08/25 00:04:30;;;;;;;29.35;26.67;;;;;;;18.77;100.00;95363.34;5064309;28;20105;-90
2023/08/25 00:06:55;;;;;;;30.17;27.58;;;;;;;18.68;100.00;95360.19;5075973;28;20031;-89
2023/08/25 00:09:21;;;;;;;30.73;28.08;;;;;;;18.72;100.00;95356.09;5064302;28;20016;-91
2023/08/25 00:11:47;;;;;;;30.42;27.95;;;;;;;18.71;100.00;95354.50;5058452;28;20494;-88
2023/08/25 00:14:12;;;;;;;29.48;26.83;;;;;;;18.82;100.00;95353.00;5044660;28;20025;-89
2023/08/25 00:16:38;;;;;;;30.42;27.73;;;;;;;18.84;100.00;95340.50;5065327;28;20070;-89
2023/08/25 00:19:04;;;;;;;32.20;29.45;;;;;;;18.65;100.00;95365.03;5052482;28;20037;-89
2023/08/25 00:21:29;;;;;;;32.55;29.60;;;;;;;18.67;100.00;95386.63;5059744;28;20047;-89
2023/08/25 00:23:55;;;;;;;32.35;29.38;;;;;;;18.65;100.00;95396.53;5069684;28;20027;-90
2023/08/25 00:26:20;;;;;;;28.42;25.88;;;;;;;18.58;100.00;95395.75;5050371;28;20039;-91
2023/08/25 00:28:46;;;;;;;28.17;25.90;;;;;;;18.63;100.00;95409.03;5044831;28;20017;-90
2023/08/25 00:31:11;;;;;;;29.30;26.92;;;;;;;18.56;100.00;95403.03;5036375;28;20060;-89
2023/08/25 00:33:40;;;;;;;30.40;27.50;;;;;;;18.49;100.00;95412.72;5064022;28;20032;-90
2023/08/25 00:36:05;;;;;;;;;;;;;;;18.54;100.00;95423.41;5046964;28;20046;-90
2023/08/25 00:38:31;;;;;;;31.13;27.73;;;;;;;18.63;100.00;95430.03;5081341;28;19923;-89
2023/08/25 00:40:56;;;;;;;28.10;25.95;;;;;;;18.63;100.00;95419.53;5062783;28;20279;-90
2023/08/25 00:43:23;;;;;;;30.55;27.80;;;;;;;18.61;100.00;95414.50;5049078;28;20360;-88
2023/08/25 00:45:48;;;;;;;30.70;27.67;;;;;;;18.64;100.00;95418.53;5042545;28;20029;-87
2023/08/25 00:48:14;;;;;;;29.30;26.90;;;;;;;18.57;100.00;95420.38;5055373;28;20482;-88
2023/08/25 00:50:39;;;;;;;30.25;27.67;;;;;;;18.56;100.00;95435.31;5064532;28;20051;-88
2023/08/25 00:53:07;;;;;;;29.45;26.65;;;;;;;18.51;100.00;95436.94;5061928;28;20031;-89
2023/08/25 00:55:32;;;;;;;29.52;27.17;;;;;;;18.38;100.00;95441.19;5062323;28;20029;-89
2023/08/25 00:57:58;;;;;;;30.00;27.30;;;;;;;18.43;100.00;95461.53;5031241;28;20021;-89
2023/08/25 01:00:25;;;;;;;30.02;27.23;;;;;;;18.36;100.00;95458.97;5058852;28;20029;-88
2023/08/25 01:02:51;;;;;;;29.77;27.27;;;;;;;18.30;100.00;95469.47;5059969;28;20021;-90
2023/08/25 01:05:16;;;;;;;30.83;28.17;;;;;;;18.32;100.00;95477.94;5072686;28;20266;-88
2023/08/25 01:07:43;;;;;;;29.92;27.30;;;;;;;18.44;100.00;95469.22;5057459;28;20035;-88
2023/08/25 01:10:09;;;;;;;31.90;28.52;;;;;;;18.48;100.00;95426.84;5083137;28;20439;-89
2023/08/25 01:12:40;;;;;;;30.90;28.08;;;;;;;18.46;100.00;95421.00;5070617;28;20024;-88
2023/08/25 01:15:13;;;;;;;29.58;27.08;;;;;;;18.52;100.00;95434.13;5068830;28;20020;-88
2023/08/25 01:18:03;;;;;;;30.63;27.83;;;;;;;18.40;100.00;95426.03;5073049;28;20032;-88
2023/08/25 01:20:30;;;;;;;30.95;28.15;;;;;;;18.25;100.00;95429.94;5048168;28;20032;-96
2023/08/25 01:23:08;;;;;;;30.77;27.73;;;;;;;18.06;100.00;95428.97;5063607;28;20034;-92
2023/08/25 01:25:34;;;;;;;30.00;27.20;;;;;;;18.03;100.00;95452.16;5074573;28;20059;-92
2023/08/25 01:28:02;;;;;;;29.60;27.05;;;;;;;17.96;100.00;95465.28;5066258;28;20510;-92
2023/08/25 01:30:30;;;;;;;29.80;27.15;;;;;;;17.95;100.00;95468.13;5077937;28;20470;-92
2023/08/25 01:32:56;;;;;;;30.80;27.90;;;;;;;17.96;100.00;95481.00;5092942;28;20054;-93
2023/08/25 01:35:48;;;;;;;29.95;26.98;;;;;;;17.94;100.00;95463.88;5085125;28;20016;-95
2023/08/25 01:38:23;;;;;;;32.15;29.13;;;;;;;17.83;100.00;95476.59;5085202;28;20036;-90
2023/08/25 01:41:03;;;;;;;28.05;25.80;;;;;;;17.77;100.00;95497.56;5082529;28;20055;-90
2023/08/25 01:43:33;;;;;;;30.13;27.23;;;;;;;17.75;100.00;95515.28;5088014;28;20020;-90
2023/08/25 01:45:59;;;;;;;29.85;26.88;;;;;;;17.76;100.00;95516.88;5087220;28;20843;-90
2023/08/25 01:48:25;;;;;;;31.90;28.90;;;;;;;17.92;100.00;95529.59;5083935;28;20084;-91
2023/08/25 01:50:51;;;;;;;31.08;28.55;;;;;;;17.92;100.00;95500.75;5083816;28;20024;-90
2023/08/25 01:53:16;;;;;;;29.60;26.90;;;;;;;17.93;100.00;95505.00;5078439;28;20359;-89
2023/08/25 01:55:41;;;;;;;31.27;28.40;;;;;;;17.69;100.00;95513.47;5066877;28;20059;-89
2023/08/25 01:58:07;;;;;;;31.17;28.42;;;;;;;17.66;100.00;95527.75;5088875;28;20482;-88
2023/08/25 02:00:32;;;;;;;31.67;28.50;;;;;;;17.79;100.00;95514.69;5070500;28;20017;-88
2023/08/25 02:02:58;;;;;;;32.17;29.23;;;;;;;17.68;100.00;95501.38;5082777;28;20023;-90
2023/08/25 02:05:24;;;;;;;33.33;30.13;;;;;;;17.51;100.00;95532.34;5072437;28;20062;-91
2023/08/25 02:07:49;;;;;;;31.52;28.83;;;;;;;17.52;100.00;95554.94;5077421;28;20092;-90
2023/08/25 02:10:14;;;;;;;31.27;28.30;;;;;;;17.46;100.00;95568.00;5082158;28;20474;-92
2023/08/25 02:12:40;;;;;;;30.02;27.52;;;;;;;17.47;100.00;95561.75;5068980;28;20028;-91
2023/08/25 02:15:06;;;;;;;30.10;27.65;;;;;;;17.52;100.00;95578.50;5062338;28;20032;-90
2023/08/25 02:17:31;;;;;;;33.20;29.90;;;;;;;17.62;100.00;95573.72;5061991;28;20033;-90
2023/08/25 02:19:57;;;;;;;30.98;28.17;;;;;;;17.69;100.00;95569.28;5074854;28;20037;-88
2023/08/25 02:22:22;;;;;;;33.50;30.40;;;;;;;17.61;100.00;95560.81;5062905;28;20033;-90
2023/08/25 02:24:48;;;;;;;31.95;29.00;;;;;;;17.48;100.00;95573.84;5081558;28;20036;-90
2023/08/25 02:27:13;;;;;;;34.50;31.65;;;;;;;17.38;100.00;95603.84;5095673;28;20486;-96
2023/08/25 02:29:39;;;;;;;32.45;29.35;;;;;;;17.36;100.00;95615.53;5088544;28;20032;-89
2023/08/25 02:32:04;;;;;;;31.52;28.88;;;;;;;17.34;100.00;95628.00;5082908;28;20104;-92
2023/08/25 02:34:30;;;;;;;33.00;30.08;;;;;;;17.37;100.00;95644.13;5069203;28;20091;-92
2023/08/25 02:36:55;;;;;;;33.70;30.88;;;;;;;17.34;100.00;95659.41;5096013;28;20028;-94
2023/08/25 02:39:21;;;;;;;33.90;30.95;;;;;;;17.35;100.00;95667.09;5076395;28;20043;-94
2023/08/25 02:41:47;;;;;;;33.50;30.60;;;;;;;17.33;100.00;95679.59;5074624;28;20035;-95
2023/08/25 02:44:12;;;;;;;33.47;30.52;;;;;;;17.35;100.00;95685.44;5073847;28;20027;-92
2023/08/25 02:46:37;;;;;;;33.75;30.63;;;;;;;17.38;100.00;95689.47;5063035;28;20081;-92
2023/08/25 02:49:03;;;;;;;35.60;32.33;;;;;;;17.31;100.00;95689.44;5068580;28;20020;-94
2023/08/25 02:51:29;;;;;;;33.83;30.38;;;;;;;17.25;100.00;95698.06;5081036;28;20134;-95
2023/08/25 02:53:54;;;;;;;34.65;31.75;;;;;;;17.33;100.00;95711.00;5068592;28;20501;-93
2023/08/25 02:56:19;;;;;;;35.42;32.25;;;;;;;17.48;100.00;95707.44;5070805;28;20032;-90
2023/08/25 02:58:45;;;;;;;32.05;29.35;;;;;;;17.56;100.00;95695.03;5076822;28;20118;-91
2023/08/25 03:01:14;;;;;;;33.45;30.50;;;;;;;17.58;100.00;95685.16;5081677;28;20028;-91
2023/08/25 03:03:39;;;;;;;31.92;29.20;;;;;;;17.60;100.00;95677.91;5081026;28;20043;-91
2023/08/25 03:06:05;;;;;;;35.22;32.22;;;;;;;17.63;100.00;95668.84;5082311;28;20818;-90
2023/08/25 03:08:30;;;;;;;34.00;30.80;;;;;;;17.56;100.00;95654.94;5090113;28;20100;-91
2023/08/25 03:10:56;;;;;;;34.85;31.65;;;;;;;17.49;100.00;95661.91;5090038;28;20102;-92
2023/08/25 03:13:21;;;;;;;34.47;31.05;;;;;;;17.35;100.00;95674.94;5077285;28;20393;-94
2023/08/25 03:15:52;;;;;;;33.03;30.17;;;;;;;17.25;100.00;95687.59;5078315;28;20028;-92
2023/08/25 03:18:17;;;;;;;36.28;32.70;;;;;;;17.28;100.00;95723.84;5087867;28;20035;-92
2023/08/25 03:20:43;;;;;;;35.80;32.58;;;;;;;17.31;100.00;95747.03;5070700;28;20027;-90
2023/08/25 03:23:08;;;;;;;34.90;31.92;;;;;;;17.34;100.00;95761.56;5083177;27;20046;-91
2023/08/25 03:25:38;;;;;;;35.00;31.92;;;;;;;17.31;100.00;95775.84;5102526;27;20032;-92
2023/08/25 03:28:04;;;;;;;34.53;31.42;;;;;;;17.23;100.00;95789.09;5112151;27;20027;-89
2023/08/25 03:30:29;;;;;;;37.10;33.78;;;;;;;17.22;100.00;95803.19;5067229;28;20024;-91
2023/08/25 03:32:55;;;;;;;34.83;31.98;;;;;;;17.27;100.00;95813.88;5067724;28;20034;-91
2023/08/25 03:35:20;;;;;;;35.15;31.70;;;;;;;17.25;100.00;95810.66;5105855;28;20024;-91
2023/08/25 03:37:46;;;;;;;36.10;32.50;;;;;;;17.18;100.00;95820.25;5105911;28;20031;-95
2023/08/25 03:40:11;;;;;;;33.58;30.30;;;;;;;17.28;100.00;95817.31;5106267;28;20027;-95
2023/08/25 03:42:36;;;;;;;34.47;31.55;;;;;;;17.13;100.00;95820.03;5105986;28;20020;-92
2023/08/25 03:45:02;;;;;;;36.00;32.72;;;;;;;17.23;100.00;95825.75;5067523;28;20020;-94
2023/08/25 03:47:27;;;;;;;33.17;30.25;;;;;;;17.37;100.00;95813.56;5084545;28;20027;-92
2023/08/25 03:49:53;;;;;;;33.63;30.50;;;;;;;17.42;100.00;95790.22;5106063;28;20023;-91
2023/08/25 03:52:19;;;;;;;33.65;30.55;;;;;;;17.52;100.00;95761.06;5078720;28;20051;-92
2023/08/25 03:54:44;;;;;;;33.15;30.35;;;;;;;17.45;100.00;95739.25;5081464;28;20563;-92
2023/08/25 03:57:10;;;;;;;34.67;31.42;;;;;;;17.41;100.00;95733.59;5085698;28;20031;-93
2023/08/25 03:59:35;;;;;;;34.70;31.20;;;;;;;17.43;100.00;95747.31;5104457;28;20504;-93
2023/08/25 04:02:01;;;;;;;33.40;30.48;;;;;;;17.50;100.00;95748.16;5102105;28;20019;-92
2023/08/25 04:04:27;;;;;;;33.25;30.33;;;;;;;17.64;100.00;95744.63;5098916;28;20033;-92
2023/08/25 04:06:53;;;;;;;33.47;30.48;;;;;;;17.77;100.00;95726.34;5068290;28;20036;-91
2023/08/25 04:09:19;;;;;;;33.30;30.38;;;;;;;17.81;100.00;95692.69;5080791;28;20023;-92
2023/08/25 04:11:45;;;;;;;34.13;30.98;;;;;;;17.88;100.00;95662.88;5092824;28;20023;-90
2023/08/25 04:14:10;;;;;;;31.02;28.05;;;;;;;17.90;100.00;95639.91;5092146;28;20035;-91
2023/08/25 04:16:36;;;;;;;31.38;28.52;;;;;;;18.11;100.00;95614.53;5071724;28;20034;-91
2023/08/25 04:19:01;;;;;;;29.10;26.60;;;;;;;18.07;100.00;95561.69;5086133;28;20039;-91
2023/08/25 04:21:26;;;;;;;30.55;27.98;;;;;;;18.19;100.00;95567.94;5083650;28;20027;-92
2023/08/25 04:23:52;;;;;;;28.55;26.25;;;;;;;18.21;100.00;95570.34;5102150;28;20023;-91
2023/08/25 04:26:18;;;;;;;29.20;26.70;;;;;;;18.27;100.00;95559.84;5086245;28;20039;-92
2023/08/25 04:28:43;;;;;;;29.20;26.73;;;;;;;18.36;100.00;95519.31;5098959;28;20024;-88
2023/08/25 04:31:09;;;;;;;26.88;24.48;;;;;;;18.56;100.00;95493.03;5065593;28;20032;-90
2023/08/25 04:33:34;;;;;;;28.13;25.83;;;;;;;18.95;100.00;95448.25;5066733;28;20032;-87
2023/08/25 04:35:59;;;;;;;28.60;25.95;;;;;;;20.09;100.00;95284.97;5094239;28;20032;-90
2023/08/25 04:38:25;;;;;;;24.25;22.10;;;;;;;21.20;100.00;95063.09;5084649;28;20515;-88
2023/08/25 04:40:51;;;;;;;24.15;22.05;;;;;;;22.22;100.00;94990.81;5066353;28;20095;-89
2023/08/25 04:43:16;;;;;;;21.42;19.73;;;;;;;22.21;100.00;94970.75;5084120;28;20023;-91
2023/08/25 04:45:42;;;;;;;19.90;18.33;;;;;;;22.56;100.00;94967.81;5072400;28;20606;-86
2023/08/25 04:48:08;;;;;;;21.05;19.27;;;;;;;22.98;100.00;94946.94;5086121;28;20503;-88
2023/08/25 04:50:34;;;;;;;18.38;16.77;;;;;;;23.24;100.00;94945.38;5072026;28;20508;-91
2023/08/25 04:53:00;;;;;;;18.45;16.92;;;;;;;23.58;100.00;94933.56;5074374;28;20108;-87
2023/08/25 04:55:25;;;;;;;17.20;16.08;;;;;;;24.02;100.00;94916.41;5062859;28;20091;-87
2023/08/25 04:57:51;;;;;;;15.68;14.65;;;;;;;24.41;100.00;94906.34;5085040;28;20039;-91
2023/08/25 05:00:16;;;;;;;17.45;15.85;;;;;;;24.69;100.00;94904.38;5071581;28;20115;-89
2023/08/25 05:02:42;;;;;;;18.33;16.80;;;;;;;25.23;100.00;94896.84;5084723;28;20061;-90
2023/08/25 05:05:11;;;;;;;19.08;17.98;;;;;;;25.65;100.00;94894.78;5082183;28;20062;-88
2023/08/25 05:07:36;;;;;;;17.98;16.65;;;;;;;25.83;100.00;94898.75;5073125;28;20024;-89
2023/08/25 05:10:02;;;;;;;17.88;16.58;;;;;;;26.80;100.00;94894.81;5078304;28;20028;-89
2023/08/25 05:12:27;;;;;;;17.45;16.08;;;;;;;26.49;100.00;94913.53;5066268;28;20103;-90
2023/08/25 05:14:54;;;;;;;16.23;14.98;;;;;;;26.88;100.00;94900.38;5083273;28;20169;-88
2023/08/25 05:17:19;;;;;;;15.90;14.80;;;;;;;26.96;100.00;94912.31;5085973;28;20024;-90
2023/08/25 05:19:45;;;;;;;16.45;15.13;;;;;;;26.89;100.00;94906.50;5103650;28;20030;-87
2023/08/25 05:22:10;;;;;;;17.65;16.50;;;;;;;27.12;100.00;94911.16;5083913;28;20044;-87
2023/08/25 05:24:37;;;;;;;16.73;15.63;;;;;;;27.21;100.00;94898.88;5085011;28;20039;-86
2023/08/25 05:27:03;;;;;;;14.98;14.07;;;;;;;27.77;100.00;94905.41;5090347;27;20076;-87
2023/08/25 05:29:28;;;;;;;14.90;13.93;;;;;;;27.99;100.00;94906.84;5073396;28;20020;-87
2023/08/25 05:31:55;;;;;;;17.45;15.95;;;;;;;28.12;100.00;94908.88;5074777;28;20039;-86
2023/08/25 05:34:20;;;;;;;17.35;16.35;;;;;;;28.43;100.00;94915.47;5081349;28;20130;-87
2023/08/25 05:36:46;;;;;;;16.88;15.52;;;;;;;28.82;100.00;94911.88;5071773;28;20136;-87
2023/08/25 05:39:12;;;;;;;17.00;15.90;;;;;;;29.04;100.00;94918.25;5078639;28;20012;-88
2023/08/25 05:41:37;;;;;;;15.98;14.85;;;;;;;29.60;99.58;94918.28;5079178;28;20458;-88
2023/08/25 05:44:03;;;;;;;17.35;16.20;;;;;;;30.49;90.82;94916.28;5083392;28;20030;-88
2023/08/25 05:46:30;;;;;;;18.00;16.88;;;;;;;30.42;91.91;94923.91;5072103;28;20032;-87
2023/08/25 05:48:56;;;;;;;17.03;15.73;;;;;;;31.18;86.52;94914.38;5071289;28;20034;-88
2023/08/25 05:51:25;;;;;;;16.25;15.18;;;;;;;32.19;79.67;94920.91;5085225;28;20024;-88
2023/08/25 05:53:51;;;;;;;14.63;13.48;;;;;;;33.09;75.38;94924.94;5065500;28;20031;-89
2023/08/25 05:56:16;;;;;;;15.57;14.45;;;;;;;32.82;74.65;94925.94;5097391;28;20027;-89
2023/08/25 05:58:42;;;;;;;15.73;14.75;;;;;;;32.82;74.10;94930.50;5079841;28;20070;-87
2023/08/25 06:01:08;;;;;;;16.33;15.23;;;;;;;33.32;70.78;94921.03;5078370;28;20034;-89
2023/08/25 06:03:33;;;;;;;16.25;15.07;;;;;;;33.78;69.22;94915.03;5080411;28;20110;-89
2023/08/25 06:05:59;;;;;;;16.90;15.45;;;;;;;33.73;69.68;94912.53;5066556;28;20051;-90
2023/08/25 06:08:26;;;;;;;14.48;13.55;;;;;;;34.07;68.44;94911.69;5073133;28;20521;-90
2023/08/25 06:10:54;;;;;;;16.37;15.17;;;;;;;34.62;63.42;94914.44;5070138;28;20023;-90
2023/08/25 06:13:20;;;;;;;15.48;14.57;;;;;;;34.72;64.81;94902.50;5099521;28;20020;-86
2023/08/25 06:15:45;;;;;;;16.65;15.02;;;;;;;35.27;59.94;94905.09;5070869;28;20849;-89
2023/08/25 06:18:12;;;;;;;17.60;16.42;;;;;;;34.96;61.70;94904.63;5067243;28;20488;-91
2023/08/25 06:20:39;;;;;;;16.35;15.35;;;;;;;35.45;61.40;94912.72;5067519;28;20070;-91
2023/08/25 06:23:04;;;;;;;16.83;15.63;;;;;;;35.22;62.36;94903.38;5058837;28;20111;-91
2023/08/25 06:25:30;;;;;;;17.70;16.38;;;;;;;33.11;72.00;94905.81;5083986;28;20111;-90
2023/08/25 06:27:56;;;;;;;18.75;17.33;;;;;;;31.92;75.75;94902.22;5083504;28;20025;-92
2023/08/25 06:30:21;;;;;;;16.73;15.32;;;;;;;30.64;88.54;94897.25;5084262;28;20016;-92
2023/08/25 06:32:46;;;;;;;18.35;16.98;;;;;;;30.84;90.28;94896.06;5084794;28;20544;-87
2023/08/25 06:35:12;;;;;;;15.68;14.38;;;;;;;30.48;95.19;94900.53;5058574;28;20054;-86
2023/08/25 06:37:38;;;;;;;15.02;13.80;;;;;;;30.74;93.72;94898.94;5102886;28;20020;-87
2023/08/25 06:40:07;;;;;;;14.02;12.73;;;;;;;30.30;97.30;94896.84;5074695;28;20024;-88
2023/08/25 06:42:33;;;;;;;13.30;12.27;;;;;;;30.88;92.59;94893.59;5083993;28;20023;-88
2023/08/25 06:44:59;;;;;;;14.40;13.50;;;;;;;32.92;78.11;94895.31;5082717;28;20032;-89
2023/08/25 06:47:25;;;;;;;12.70;11.73;;;;;;;34.99;65.38;94893.97;5085151;28;20506;-87
2023/08/25 06:49:50;;;;;;;12.10;11.40;;;;;;;35.70;62.27;94892.09;5086179;28;20031;-87
2023/08/25 06:52:16;;;;;;;11.73;10.93;;;;;;;36.44;59.20;94893.91;5088823;28;20020;-88
2023/08/25 06:54:41;;;;;;;10.40;9.70;;;;;;;36.26;59.89;94895.22;5088254;28;20505;-87
2023/08/25 06:57:07;;;;;;;11.60;10.57;;;;;;;36.58;56.19;94878.19;5069250;28;20032;-86
2023/08/25 06:59:32;;;;;;;11.23;10.20;;;;;;;36.94;55.04;94899.81;5098924;28;20054;-87
2023/08/25 07:01:58;;;;;;;11.05;10.18;;;;;;;37.97;53.49;94889.38;5081297;28;20539;-87
2023/08/25 07:04:23;;;;;;;10.07;9.33;;;;;;;38.37;53.40;94895.50;5085947;28;20046;-85
2023/08/25 07:06:49;;;;;;;10.87;9.93;;;;;;;38.84;50.69;94895.53;5093244;28;20043;-86
2023/08/25 07:09:14;;;;;;;10.20;9.40;;;;;;;38.11;51.24;94897.09;5106721;28;20024;-84
2023/08/25 07:11:40;;;;;;;11.20;10.37;;;;;;;38.66;48.82;94896.22;5072572;28;20112;-86
2023/08/25 07:14:05;;;;;;;11.87;10.77;;;;;;;38.49;48.80;94892.72;5067013;28;20455;-85
2023/08/25 07:16:30;;;;;;;11.17;10.37;;;;;;;38.79;49.22;94886.88;5099187;28;20043;-86
2023/08/25 07:18:57;;;;;;;10.87;10.00;;;;;;;38.77;48.10;94895.34;5094660;28;20027;-86
2023/08/25 07:21:22;;;;;;;;;;;;;;;39.04;47.28;94893.69;5082720;27;20117;-85
2023/08/25 07:23:47;;;;;;;;;;;;;;;38.62;49.45;94887.22;5052900;28;20019;-86
2023/08/25 07:26:13;;;;;;;12.07;11.10;;;;;;;37.76;50.53;94889.53;5084171;28;19912;-82
2023/08/25 07:28:38;;;;;;;12.35;11.63;;;;;;;38.30;51.54;94883.69;5102079;28;20031;-89
2023/08/25 07:31:04;;;;;;;13.73;12.88;;;;;;;34.71;60.26;94892.88;5066233;28;20039;-86
2023/08/25 07:33:30;;;;;;;13.85;12.88;;;;;;;32.82;75.17;94888.34;5082570;28;20531;-86
2023/08/25 07:35:57;;;;;;;14.10;12.88;;;;;;;32.48;78.28;94904.31;5076001;28;20020;-88
2023/08/25 07:38:23;;;;;;;15.43;14.27;;;;;;;32.86;75.82;94908.09;5081497;28;20035;-83
2023/08/25 07:40:48;;;;;;;15.57;14.57;;;;;;;32.88;77.11;94900.53;5068009;28;20036;-85
2023/08/25 07:43:13;;;;;;;14.65;13.65;;;;;;;32.42;79.56;94900.19;5085544;28;20031;-84
2023/08/25 07:45:39;;;;;;;15.70;14.15;;;;;;;32.04;81.79;94899.03;5084741;28;20032;-85
2023/08/25 07:48:05;;;;;;;15.93;14.70;;;;;;;32.21;82.75;94904.47;5086288;28;20493;-87
2023/08/25 07:50:31;;;;;;;15.40;13.88;;;;;;;32.40;78.92;94907.72;5088805;28;20103;-87
2023/08/25 07:52:58;;;;;;;16.23;14.80;;;;;;;32.28;82.66;94910.22;5085551;28;20027;-89
2023/08/25 07:55:24;;;;;;;15.27;14.23;;;;;;;32.14;81.62;94904.91;5068807;28;20028;-87
2023/08/25 07:57:50;;;;;;;15.70;14.50;;;;;;;32.13;80.00;94902.56;5071136;28;20417;-88
2023/08/25 08:00:17;;;;;;;21.75;19.88;;;;;;;32.43;79.95;94909.03;5054967;28;20035;-87
2023/08/25 08:02:44;;;;;;;69.80;62.78;;;;;;;32.28;79.95;94907.53;5081054;28;20020;-88
2023/08/25 08:05:10;;;;;;;51.47;47.00;;;;;;;32.30;79.83;94900.75;5074480;28;20051;-86
2023/08/25 08:07:36;;;;;;;17.02;15.38;;;;;;;32.09;80.36;94891.66;5076270;28;20031;-90
2023/08/25 08:10:01;;;;;;;20.63;18.95;;;;;;;32.25;82.55;94892.84;5069094;28;20062;-86
2023/08/25 08:12:28;;;;;;;19.70;17.92;;;;;;;32.13;81.10;94895.31;5084622;28;20049;-88
2023/08/25 08:14:53;;;;;;;75.22;68.35;;;;;;;32.47;78.98;94897.34;5107973;27;20522;-87
2023/08/25 08:17:19;;;;;;;18.75;17.30;;;;;;;32.20;78.32;94898.34;5103016;27;20032;-87
2023/08/25 08:19:45;;;;;;;16.48;14.95;;;;;;;32.21;81.25;94899.91;5079102;28;20059;-86
2023/08/25 08:22:10;;;;;;;27.10;24.48;;;;;;;32.32;79.93;94901.25;5073900;28;20139;-86
2023/08/25 08:24:36;;;;;;;21.40;19.35;;;;;;;32.31;79.81;94888.13;5086992;28;20113;-85
2023/08/25 08:27:02;;;;;;;15.98;14.70;;;;;;;32.06;80.63;94891.47;5097876;28;20016;-82
2023/08/25 08:29:28;;;;;;;14.25;13.25;;;;;;;32.13;80.61;94891.84;5082508;28;20034;-83
2023/08/25 08:31:55;;;;;;;13.38;12.32;;;;;;;32.24;77.01;94882.41;5102111;28;20026;-84
2023/08/25 08:34:21;;;;;;;13.00;11.75;;;;;;;31.91;74.32;94875.75;5082969;28;20031;-84
2023/08/25 08:36:47;;;;;;;13.00;12.10;;;;;;;32.36;78.34;94875.41;5082735;28;20039;-85
2023/08/25 08:39:13;;;;;;;13.02;11.82;;;;;;;32.55;78.18;94874.34;5110619;27;20042;-83
2023/08/25 08:41:38;;;;;;;13.38;12.27;;;;;;;32.40;75.57;94872.09;5087466;28;20031;-84
2023/08/25 08:44:05;;;;;;;13.25;12.07;;;;;;;32.53;75.35;94874.66;5101850;28;20871;-84
2023/08/25 08:46:31;;;;;;;13.55;12.32;;;;;;;32.04;76.72;94870.34;5068868;28;20682;-85
2023/08/25 08:48:58;;;;;;;12.27;11.23;;;;;;;32.27;75.24;94857.69;5082219;28;20031;-85
2023/08/25 08:51:24;;;;;;;12.82;8.32;;;;;;;32.38;68.02;94857.09;5063384;28;20135;-81
2023/08/25 08:53:51;;;;;;;10.45;9.38;;;;;;;32.27;67.49;94861.13;5081438;28;20027;-82
2023/08/25 08:56:16;;;;;;;10.95;9.43;;;;;;;32.50;68.26;94853.81;5080723;28;20114;-81
2023/08/25 08:58:45;;;;;;;10.05;9.27;;;;;;;32.48;69.31;94855.22;5080978;28;20115;-80
2023/08/25 09:01:10;;;;;;;;;;;;;;;32.56;66.83;94851.78;5092342;28;20077;-81
2023/08/25 09:03:37;;;;;;;8.68;7.57;;;;;;;32.35;63.98;94856.91;5077307;28;20397;-82
2023/08/25 09:06:03;;;;;;;8.68;8.07;;;;;;;32.51;65.76;94851.91;5081928;28;20504;-82
2023/08/25 09:08:30;;;;;;;8.40;7.80;;;;;;;32.65;63.11;94849.94;5077676;28;20076;-82
2023/08/25 09:10:59;;;;;;;8.25;7.65;;;;;;;32.23;61.30;94848.66;5078726;28;20031;-83
2023/08/25 09:13:25;;;;;;;9.00;8.35;;;;;;;32.00;64.40;94834.50;5081435;28;20027;-83
2023/08/25 09:15:53;;;;;;;8.93;8.13;;;;;;;32.04;64.14;94835.50;5099137;28;20473;-81
2023/08/25 09:18:18;;;;;;;11.75;9.30;;;;;;;31.84;65.18;94834.09;5082614;28;20032;-81
2023/08/25 09:20:44;;;;;;;9.93;8.43;;;;;;;32.21;66.98;94832.88;5060422;28;20519;-83
2023/08/25 09:23:10;;;;;;;10.35;9.38;;;;;;;32.44;66.92;94830.91;5079632;28;20072;-82
2023/08/25 09:25:39;;;;;;;9.00;8.30;;;;;;;32.29;64.50;94826.75;5078812;28;20040;-83
2023/08/25 09:28:05;;;;;;;9.93;8.98;;;;;;;32.27;67.62;94820.13;5080455;28;20020;-83
2023/08/25 09:30:41;;;;;;;9.90;8.00;;;;;;;32.13;61.94;94819.44;5096019;28;20031;-83
2023/08/25 09:33:13;;;;;;;8.23;7.57;;;;;;;32.38;61.25;94808.81;5078187;28;20023;-84
2023/08/25 09:35:39;;;;;;;7.65;6.95;;;;;;;32.42;62.53;94810.84;5077048;28;20080;-83
2023/08/25 09:38:05;;;;;;;8.82;8.00;;;;;;;32.58;62.07;94809.34;5086639;28;20047;-80
2023/08/25 09:40:31;;;;;;;9.32;8.10;;;;;;;32.28;61.91;94802.91;5076199;28;20027;-82
2023/08/25 09:43:03;;;;;;;8.95;8.18;;;;;;;32.36;61.40;94799.50;5079041;28;20026;-85
2023/08/25 09:45:30;;;;;;;9.07;8.05;;;;;;;32.09;61.00;94797.00;5062657;28;20472;-83
2023/08/25 09:48:14;;;;;;;10.80;8.07;;;;;;;32.26;63.91;94786.34;5097470;28;20114;-83
2023/08/25 09:50:41;;;;;;;8.65;7.90;;;;;;;31.47;62.64;94796.94;5073194;28;20512;-84
2023/08/25 09:53:08;;;;;;;8.60;7.75;;;;;;;32.07;60.14;94799.22;5081971;28;20020;-82
2023/08/25 09:55:36;;;;;;;8.32;7.53;;;;;;;32.26;59.28;94791.72;5076043;28;20110;-81
2023/08/25 09:58:04;;;;;;;7.60;7.00;;;;;;;32.59;57.33;94781.44;5062398;28;20039;-83
2023/08/25 10:00:29;;;;;;;7.85;7.25;;;;;;;32.47;56.63;94779.31;5075612;28;20803;-85
2023/08/25 10:02:56;;;;;;;7.78;7.28;;;;;;;32.08;60.80;94782.00;5073866;28;20108;-86
2023/08/25 10:05:22;;;;;;;8.52;6.95;;;;;;;32.06;56.82;94784.22;5077457;28;20432;-83
2023/08/25 10:07:47;;;;;;;8.40;7.45;;;;;;;32.33;57.74;94778.66;5080772;28;20023;-84
2023/08/25 10:10:13;;;;;;;7.70;7.00;;;;;;;30.61;58.22;94774.81;5081797;28;20020;-83
2023/08/25 10:12:41;;;;;;;9.48;7.10;;;;;;;32.49;60.63;94777.13;5065436;28;20492;-84
2023/08/25 10:15:09;;;;;;;7.60;6.97;;;;;;;32.98;57.47;94767.88;5064760;28;20023;-83
2023/08/25 10:17:36;;;;;;;8.18;5.90;;;;;;;32.58;53.25;94764.53;5064214;28;20051;-82
2023/08/25 10:20:05;;;;;;;6.28;5.88;;;;;;;32.52;51.69;94759.59;5080707;28;20023;-82
2023/08/25 10:22:31;;;;;;;7.18;6.57;;;;;;;32.51;54.13;94758.00;5064762;28;20386;-84
2023/08/25 10:25:01;;;;;;;7.05;6.38;;;;;;;31.61;53.09;94757.50;5101916;28;20019;-83
2023/08/25 10:27:28;;;;;;;6.60;6.18;;;;;;;31.07;56.28;94747.84;5085992;28;20031;-83
2023/08/25 10:29:53;;;;;;;7.88;7.18;;;;;;;32.07;54.25;94753.63;5084094;28;20427;-82
2023/08/25 10:32:19;;;;;;;7.07;6.50;;;;;;;32.25;55.43;94748.00;5104637;28;20499;-82
2023/08/25 10:34:46;;;;;;;10.40;7.43;;;;;;;31.70;56.28;94734.22;5067469;28;20019;-83
2023/08/25 10:37:25;;;;;;;7.55;6.78;;;;;;;31.65;56.63;94747.75;5085406;28;20024;-79
2023/08/25 10:39:53;;;;;;;8.40;7.60;;;;;;;32.10;58.33;94736.94;5078951;28;20089;-83
2023/08/25 10:42:19;;;;;;;7.93;7.30;;;;;;;32.58;59.49;94736.91;5064465;28;20378;-83
2023/08/25 10:44:45;;;;;;;9.45;6.30;;;;;;;32.65;55.46;94732.66;5098527;28;20892;-84
2023/08/25 10:47:11;;;;;;;5.65;5.15;;;;;;;32.77;52.20;94732.03;5084659;28;20511;-83
2023/08/25 10:49:38;;;;;;;6.68;5.20;;;;;;;32.68;52.47;94732.03;5082615;28;20028;-84
2023/08/25 10:52:17;;;;;;;5.90;5.07;;;;;;;32.68;49.84;94734.72;5077277;28;20039;-83
2023/08/25 10:54:44;;;;;;;5.95;4.82;;;;;;;32.80;49.48;94731.38;5060472;28;20020;-83
2023/08/25 10:57:38;;;;;;;6.07;5.20;;;;;;;33.05;50.77;94732.47;5079806;28;20023;-83
2023/08/25 11:00:28;;;;;;;5.28;4.88;;;;;;;32.37;46.63;94732.09;5080413;28;20038;-85
2023/08/25 11:02:55;;;;;;;6.78;5.28;;;;;;;32.28;47.45;94730.50;5092133;28;20283;-83
2023/08/25 11:05:44;;;;;;;6.47;5.32;;;;;;;32.75;51.10;94736.94;5084313;28;20221;-83
2023/08/25 11:08:28;;;;;;;6.25;4.65;;;;;;;32.80;47.43;94729.50;5082868;28;20055;-86
2023/08/25 11:11:13;;;;;;;7.38;4.90;;;;;;;32.65;48.94;94727.28;5103343;28;20375;-85
2023/08/25 11:13:39;;;;;;;8.18;5.22;;;;;;;32.45;47.13;94727.84;5090565;28;20024;-80
2023/08/25 11:16:14;;;;;;;15.00;5.68;;;;;;;32.87;48.89;94721.78;5072439;28;20814;-85